createdAt,value
2022-09-15T00:01:03.618Z,100722.00
2022-09-15T00:03:30.116Z,100718.47
2022-09-15T00:05:56.671Z,100719.66
2022-09-15T00:08:23.785Z,100723.53
2022-09-15T00:10:57.329Z,100729.00
2022-09-15T00:13:25.525Z,100723.72
2022-09-15T00:15:52.094Z,100726.09
2022-09-15T00:18:18.785Z,100726.09
2022-09-15T00:20:45.808Z,100730.41
2022-09-15T00:23:14.155Z,100730.41
2022-09-15T00:25:49.299Z,100726.38
2022-09-15T00:28:17.803Z,100722.56
2022-09-15T00:30:46.961Z,100724.56
2022-09-15T00:33:14.914Z,100726.84
2022-09-15T00:35:44.315Z,100723.22
2022-09-15T00:38:12.165Z,100719.66
2022-09-15T00:40:50.970Z,100721.41
2022-09-15T00:43:19.942Z,100728.41
2022-09-15T00:45:46.488Z,100725.69
2022-09-15T00:48:22.390Z,100719.66
2022-09-15T00:50:56.411Z,100722.38
2022-09-15T00:53:24.007Z,100718.38
2022-09-15T00:55:51.088Z,100721.19
2022-09-15T00:58:24.311Z,100727.63
2022-09-15T01:00:58.837Z,100718.06
2022-09-15T01:03:26.751Z,100721.53
2022-09-15T01:05:58.473Z,100724.97
2022-09-15T01:08:34.717Z,100723.22
2022-09-15T01:11:02.648Z,100724.63
2022-09-15T01:13:29.770Z,100731.81
2022-09-15T01:16:29.751Z,100724.03
2022-09-15T01:19:33.558Z,100730.91
2022-09-15T01:22:33.766Z,100725.44
2022-09-15T01:25:26.290Z,100728.06
2022-09-15T01:28:39.261Z,100736.13
2022-09-15T01:31:28.274Z,100738.03
2022-09-15T01:34:20.825Z,100734.13
2022-09-15T01:36:56.646Z,100744.81
2022-09-15T01:39:30.230Z,100738.91
2022-09-15T01:42:03.645Z,100735.72
2022-09-15T01:44:36.278Z,100740.44
2022-09-15T01:47:06.267Z,100738.81
2022-09-15T01:49:53.679Z,100731.53
2022-09-15T01:52:23.263Z,100733.53
2022-09-15T01:54:57.398Z,100731.06
2022-09-15T01:57:24.137Z,100726.16
2022-09-15T01:59:53.957Z,100732.31
2022-09-15T02:02:29.900Z,100730.47
2022-09-15T02:05:25.326Z,100740.25
2022-09-15T02:07:58.091Z,100736.50
2022-09-15T02:10:45.737Z,100734.06
2022-09-15T02:13:35.869Z,100741.22
2022-09-15T02:16:02.311Z,100735.28
2022-09-15T02:18:30.452Z,100751.88
2022-09-15T02:21:18.112Z,100743.94
2022-09-15T02:23:57.052Z,100746.22
2022-09-15T02:26:28.618Z,100736.44
2022-09-15T02:28:58.458Z,100743.50
2022-09-15T02:31:26.959Z,100737.44
2022-09-15T02:34:01.130Z,100744.03
2022-09-15T02:36:29.359Z,100753.16
2022-09-15T02:39:08.400Z,100750.22
2022-09-15T02:41:36.655Z,100747.16
2022-09-15T02:44:03.689Z,100749.00
2022-09-15T02:46:30.232Z,100746.28
2022-09-15T02:48:56.991Z,100742.31
2022-09-15T02:51:23.452Z,100739.59
2022-09-15T02:53:49.930Z,100740.31
2022-09-15T02:56:16.998Z,100732.78
2022-09-15T02:58:43.548Z,100735.38
2022-09-15T03:01:15.668Z,100733.28
2022-09-15T03:03:44.002Z,100746.94
2022-09-15T03:06:17.344Z,100743.94
2022-09-15T03:08:54.754Z,100750.66
2022-09-15T03:11:24.269Z,100749.19
2022-09-15T03:13:55.721Z,100750.94
2022-09-15T03:16:22.779Z,100754.63
2022-09-15T03:18:49.291Z,100748.00
2022-09-15T03:21:17.291Z,100748.72
2022-09-15T03:23:43.681Z,100750.31
2022-09-15T03:26:11.015Z,100749.19
2022-09-15T03:28:38.846Z,100749.19
2022-09-15T03:31:07.348Z,100745.22
2022-09-15T03:33:33.933Z,100758.06
2022-09-15T03:36:00.429Z,100751.38
2022-09-15T03:38:26.823Z,100753.13
2022-09-15T03:40:57.333Z,100750.03
2022-09-15T03:43:23.727Z,100750.66
2022-09-15T03:45:50.145Z,100753.53
2022-09-15T03:48:17.308Z,100746.94
2022-09-15T03:50:43.648Z,100745.41
2022-09-15T03:53:09.965Z,100756.44
2022-09-15T03:55:36.361Z,100757.81
2022-09-15T03:58:02.732Z,100757.72
2022-09-15T04:00:29.322Z,100750.19
2022-09-15T04:02:55.785Z,100745.53
2022-09-15T04:05:22.132Z,100754.16
2022-09-15T04:07:50.232Z,100751.16
2022-09-15T04:10:16.843Z,100752.63
2022-09-15T04:12:44.258Z,100749.91
2022-09-15T04:15:10.792Z,100755.84
2022-09-15T04:17:37.378Z,100751.38
2022-09-15T04:20:03.935Z,100752.91
2022-09-15T04:22:32.081Z,100754.63
2022-09-15T04:24:58.643Z,100754.72
2022-09-15T04:27:25.030Z,100752.38
2022-09-15T04:29:52.518Z,100756.81
2022-09-15T04:32:20.397Z,100753.84
2022-09-15T04:34:47.075Z,100746.66
2022-09-15T04:37:13.432Z,100757.41
2022-09-15T04:39:39.801Z,100755.06
2022-09-15T04:42:07.762Z,100759.28
2022-09-15T04:44:34.441Z,100754.34
2022-09-15T04:47:00.898Z,100755.44
2022-09-15T04:49:28.623Z,100766.97
2022-09-15T04:51:55.249Z,100765.78
2022-09-15T04:54:21.639Z,100766.78
2022-09-15T04:56:48.865Z,100780.56
2022-09-15T04:59:16.988Z,100776.38
2022-09-15T05:01:43.762Z,100783.34
2022-09-15T05:04:10.217Z,100785.19
2022-09-15T05:06:37.832Z,100784.19
2022-09-15T05:09:10.025Z,100793.00
2022-09-15T05:11:37.459Z,100789.75
2022-09-15T05:14:03.884Z,100795.81
2022-09-15T05:16:31.259Z,100791.38
2022-09-15T05:19:00.402Z,100787.03
2022-09-15T05:21:27.932Z,100786.81
2022-09-15T05:23:55.125Z,100787.44
2022-09-15T05:26:23.962Z,100790.75
2022-09-15T05:28:50.324Z,100790.63
2022-09-15T05:31:26.632Z,100794.06
2022-09-15T05:33:53.906Z,100793.56
2022-09-15T05:36:24.934Z,100799.75
2022-09-15T05:38:53.669Z,100804.72
2022-09-15T05:41:20.760Z,100808.41
2022-09-15T05:43:48.556Z,100812.81
2022-09-15T05:46:16.671Z,100813.78
2022-09-15T05:48:43.695Z,100813.22
2022-09-15T05:51:10.046Z,100812.13
2022-09-15T05:53:37.314Z,100809.91
2022-09-15T05:56:06.902Z,100805.44
2022-09-15T05:58:34.002Z,100808.91
2022-09-15T06:01:07.544Z,100804.84
2022-09-15T06:03:35.278Z,100805.59
2022-09-15T06:06:03.464Z,100802.78
2022-09-15T06:08:34.322Z,100799.97
2022-09-15T06:11:03.351Z,100796.88
2022-09-15T06:13:29.716Z,100796.41
2022-09-15T06:16:01.482Z,100796.28
2022-09-15T06:18:27.942Z,100799.66
2022-09-15T06:20:54.271Z,100801.13
2022-09-15T06:23:20.620Z,100799.16
2022-09-15T06:25:46.962Z,100798.69
2022-09-15T06:28:13.321Z,100803.75
2022-09-15T06:30:40.269Z,100800.81
2022-09-15T06:33:06.784Z,100801.78
2022-09-15T06:35:33.135Z,100801.41
2022-09-15T06:37:59.458Z,100799.53
2022-09-15T06:40:25.899Z,100796.44
2022-09-15T06:42:56.930Z,100791.34
2022-09-15T06:45:23.291Z,100794.81
2022-09-15T06:48:13.412Z,100788.47
2022-09-15T06:50:38.303Z,100796.13
2022-09-15T06:53:04.659Z,100790.47
2022-09-15T06:55:31.024Z,100801.47
2022-09-15T06:57:57.478Z,100795.56
2022-09-15T07:00:23.828Z,100799.03
2022-09-15T07:02:50.280Z,100807.28
2022-09-15T07:05:17.225Z,100808.16
2022-09-15T07:07:43.737Z,100803.84
2022-09-15T07:10:10.066Z,100810.38
2022-09-15T07:12:37.148Z,100803.31
2022-09-15T07:15:03.760Z,100814.88
2022-09-15T07:17:30.166Z,100813.00
2022-09-15T07:19:56.602Z,100817.56
2022-09-15T07:22:24.537Z,100818.78
2022-09-15T07:24:50.873Z,100821.25
2022-09-15T07:27:17.201Z,100819.19
2022-09-15T07:29:43.808Z,100816.97
2022-09-15T07:32:10.232Z,100818.44
2022-09-15T07:34:36.583Z,100830.06
2022-09-15T07:37:03.024Z,100825.59
2022-09-15T07:39:29.385Z,100821.25
2022-09-15T07:41:55.744Z,100824.56
2022-09-15T07:44:22.112Z,100829.28
2022-09-15T07:46:48.451Z,100834.22
2022-09-15T07:49:14.813Z,100841.81
2022-09-15T07:51:41.227Z,100842.84
2022-09-15T07:54:07.569Z,100841.25
2022-09-15T07:56:34.182Z,100836.75
2022-09-15T07:59:00.530Z,100832.63
2022-09-15T08:01:27.058Z,100839.84
2022-09-15T08:03:53.723Z,100844.44
2022-09-15T08:06:22.949Z,100842.88
2022-09-15T08:08:51.278Z,100839.66
2022-09-15T08:11:20.864Z,100847.38
2022-09-15T08:13:49.618Z,100846.84
2022-09-15T08:16:24.278Z,100851.41
2022-09-15T08:18:53.485Z,100850.16
2022-09-15T08:21:21.794Z,100857.22
2022-09-15T08:23:54.009Z,100852.75
2022-09-15T08:26:20.497Z,100855.53
2022-09-15T08:28:47.127Z,100855.88
2022-09-15T08:31:14.354Z,100855.53
2022-09-15T08:33:45.510Z,100864.59
2022-09-15T08:36:12.730Z,100858.84
2022-09-15T08:38:44.360Z,100862.75
2022-09-15T08:41:31.527Z,100874.69
2022-09-15T08:44:01.097Z,100873.84
2022-09-15T08:46:54.010Z,100874.31
2022-09-15T08:49:50.511Z,100877.53
2022-09-15T08:52:28.138Z,100878.50
2022-09-15T08:54:57.965Z,100879.03
2022-09-15T08:57:26.075Z,100871.72
2022-09-15T08:59:54.419Z,100877.84
2022-09-15T09:02:37.900Z,100877.88
2022-09-15T09:05:24.942Z,100877.91
2022-09-15T09:08:29.397Z,100877.53
2022-09-15T09:11:26.442Z,100894.13
2022-09-15T09:14:22.676Z,100900.72
2022-09-15T09:17:01.105Z,100900.56
2022-09-15T09:19:50.007Z,100899.19
2022-09-15T09:22:21.765Z,100896.19
2022-09-15T09:24:51.477Z,100901.09
2022-09-15T09:27:23.010Z,100907.53
2022-09-15T09:29:55.223Z,100900.59
2022-09-15T09:32:32.186Z,100900.44
2022-09-15T09:35:05.183Z,100901.13
2022-09-15T09:37:33.053Z,100906.47
2022-09-15T09:39:59.495Z,100908.72
2022-09-15T09:42:31.317Z,100914.47
2022-09-15T09:44:57.937Z,100904.00
2022-09-15T09:47:29.673Z,100908.31
2022-09-15T09:49:56.090Z,100909.59
2022-09-15T09:52:36.802Z,100912.63
2022-09-15T09:55:24.048Z,100914.03
2022-09-15T09:57:51.049Z,100903.63
2022-09-15T10:00:38.866Z,100907.50
2022-09-15T10:03:19.280Z,100904.94
2022-09-15T10:06:00.521Z,100905.28
2022-09-15T10:08:27.056Z,100900.44
2022-09-15T10:10:55.938Z,100907.34
2022-09-15T10:13:22.453Z,100893.53
2022-09-15T10:15:59.222Z,100886.81
2022-09-15T10:18:30.499Z,100889.84
2022-09-15T10:20:57.503Z,100899.50
2022-09-15T10:23:29.588Z,100904.22
2022-09-15T10:26:17.112Z,100911.97
2022-09-15T10:28:44.924Z,100913.66
2022-09-15T10:31:24.163Z,100908.25
2022-09-15T10:33:50.553Z,100917.28
2022-09-15T10:36:22.364Z,100912.09
2022-09-15T10:38:57.589Z,100912.81
2022-09-15T10:41:31.724Z,100912.19
2022-09-15T10:44:04.169Z,100914.78
2022-09-15T10:46:49.371Z,100901.53
2022-09-15T10:49:34.506Z,100910.78
2022-09-15T10:52:35.451Z,100912.22
2022-09-15T10:55:51.210Z,100909.34
2022-09-15T10:58:29.200Z,100893.19
2022-09-15T11:01:04.677Z,100912.50
2022-09-15T11:03:49.989Z,100916.84
2022-09-15T11:06:34.857Z,100914.50
2022-09-15T11:09:18.573Z,100917.69
2022-09-15T11:12:27.151Z,100924.47
2022-09-15T11:15:07.002Z,100923.00
2022-09-15T11:18:08.881Z,100932.66
2022-09-15T11:21:07.649Z,100924.88
2022-09-15T11:23:40.221Z,100920.28
2022-09-15T11:26:35.997Z,100924.56
2022-09-15T11:29:29.396Z,100919.38
2022-09-15T11:32:04.207Z,100914.03
2022-09-15T11:34:38.998Z,100921.22
2022-09-15T11:37:12.952Z,100923.50
2022-09-15T11:39:50.132Z,100917.00
2022-09-15T11:42:30.678Z,100924.53
2022-09-15T11:44:59.470Z,100925.22
2022-09-15T11:47:39.926Z,100920.03
2022-09-15T11:50:20.972Z,100929.94
2022-09-15T11:53:19.353Z,100926.06
2022-09-15T11:55:55.663Z,100935.41
2022-09-15T11:59:01.368Z,100927.75
2022-09-15T12:01:35.564Z,100938.78
2022-09-15T12:04:15.433Z,100935.69
2022-09-15T12:06:54.183Z,100933.25
2022-09-15T12:09:21.796Z,100931.63
2022-09-15T12:11:52.878Z,100931.34
2022-09-15T12:14:35.861Z,100926.22
2022-09-15T12:17:05.681Z,100931.41
2022-09-15T12:19:33.312Z,100922.38
2022-09-15T12:22:18.063Z,100933.47
2022-09-15T12:24:57.804Z,100929.66
2022-09-15T12:27:27.274Z,100933.31
2022-09-15T12:29:56.193Z,100934.25
2022-09-15T12:32:27.602Z,100949.25
2022-09-15T12:35:01.531Z,100945.72
2022-09-15T12:37:45.706Z,100942.31
2022-09-15T12:40:30.402Z,100943.81
2022-09-15T12:42:57.448Z,100946.38
2022-09-15T12:45:29.995Z,100939.84
2022-09-15T12:48:14.830Z,100940.47
2022-09-15T12:50:43.248Z,100945.72
2022-09-15T12:53:20.829Z,100945.75
2022-09-15T12:56:00.014Z,100956.75
2022-09-15T12:58:39.138Z,100955.94
2022-09-15T13:01:27.146Z,100959.72
2022-09-15T13:03:54.983Z,100962.00
2022-09-15T13:06:26.468Z,100968.03
2022-09-15T13:09:01.983Z,100955.53
2022-09-15T13:11:36.769Z,100967.03
2022-09-15T13:14:03.250Z,100961.00
2022-09-15T13:16:34.577Z,100957.38
2022-09-15T13:19:12.314Z,100969.03
2022-09-15T13:21:43.100Z,100969.75
2022-09-15T13:24:20.236Z,100960.38
2022-09-15T13:26:54.567Z,100948.72
2022-09-15T13:29:22.088Z,100959.22
2022-09-15T13:31:57.807Z,100956.25
2022-09-15T13:38:15.046Z,100947.47
2022-09-15T13:40:52.017Z,100957.09
2022-09-15T13:43:56.110Z,100961.41
2022-09-15T13:46:59.521Z,100949.00
2022-09-15T13:49:47.641Z,100948.03
2022-09-15T13:52:23.071Z,100948.75
2022-09-15T13:55:09.449Z,100952.22
2022-09-15T14:00:42.411Z,100942.53
2022-09-15T14:03:13.689Z,100949.47
2022-09-15T14:05:40.528Z,100944.91
2022-09-15T14:08:13.617Z,100944.00
2022-09-15T14:10:47.147Z,100938.06
2022-09-15T14:13:18.058Z,100947.59
2022-09-15T14:15:58.260Z,100946.88
2022-09-15T14:18:25.410Z,100939.28
2022-09-15T14:21:05.259Z,100935.75
2022-09-15T14:23:32.775Z,100944.06
2022-09-15T14:26:01.478Z,100935.06
2022-09-15T14:28:33.457Z,100935.31
2022-09-15T14:31:01.574Z,100938.44
2022-09-15T14:33:46.935Z,100942.25
2022-09-15T14:36:22.274Z,100939.16
2022-09-15T14:39:18.439Z,100944.63
2022-09-15T14:41:45.463Z,100940.63
2022-09-15T14:47:28.367Z,100943.41
2022-09-15T14:50:20.368Z,100949.81
2022-09-15T14:53:08.507Z,100951.56
2022-09-15T14:55:53.189Z,100952.63
2022-09-15T14:58:59.033Z,100950.16
2022-09-15T15:01:34.308Z,100956.38
2022-09-15T15:04:20.811Z,100953.94
2022-09-15T15:06:53.126Z,100970.06
2022-09-15T15:09:35.438Z,100958.84
2022-09-15T15:12:11.374Z,100957.19
2022-09-15T15:14:37.973Z,100971.00
2022-09-15T15:17:08.363Z,100962.56
2022-09-15T15:19:38.608Z,100964.69
2022-09-15T15:22:13.975Z,100964.69
2022-09-15T15:24:43.866Z,100953.97
2022-09-15T15:27:31.935Z,100977.13
2022-09-15T15:30:19.394Z,100978.97
2022-09-15T15:32:45.912Z,100979.06
2022-09-15T15:35:19.572Z,100987.25
2022-09-15T15:37:47.264Z,100994.69
2022-09-15T15:40:19.341Z,100990.97
2022-09-15T15:42:57.868Z,100992.91
2022-09-15T15:45:30.369Z,101005.97
2022-09-15T15:47:57.349Z,100998.78
2022-09-15T15:50:26.092Z,100999.50
2022-09-15T15:52:53.017Z,101006.94
2022-09-15T15:55:24.966Z,101014.28
2022-09-15T15:57:54.194Z,101005.22
2022-09-15T16:00:32.693Z,101009.31
2022-09-15T16:02:59.126Z,101011.28
2022-09-15T16:05:27.958Z,100993.38
2022-09-15T16:07:56.467Z,101002.63
2022-09-15T16:10:28.002Z,101003.25
2022-09-15T16:12:54.367Z,100994.22
2022-09-15T16:15:21.705Z,100993.22
2022-09-15T16:17:49.134Z,100997.28
2022-09-15T16:20:16.792Z,100989.00
2022-09-15T16:22:43.743Z,100991.34
2022-09-15T16:25:15.805Z,100983.78
2022-09-15T16:27:42.386Z,100984.00
2022-09-15T16:30:11.897Z,100999.38
2022-09-15T16:32:39.859Z,101013.66
2022-09-15T16:35:29.282Z,101017.38
2022-09-15T16:37:55.734Z,101013.00
2022-09-15T16:40:22.150Z,101019.53
2022-09-15T16:42:48.843Z,101016.34
2022-09-15T16:45:24.854Z,101014.63
2022-09-15T16:47:51.255Z,101009.81
2022-09-15T16:50:17.918Z,101005.16
2022-09-15T16:52:44.281Z,101000.03
2022-09-15T16:55:31.198Z,100993.84
2022-09-15T16:57:57.798Z,100995.34
2022-09-15T17:00:24.289Z,100988.44
2022-09-15T17:02:50.723Z,100992.66
2022-09-15T17:05:48.524Z,100986.81
2022-09-15T17:08:16.731Z,100991.22
2022-09-15T17:10:43.766Z,100989.09
2022-09-15T17:13:15.786Z,100987.34
2022-09-15T17:15:42.723Z,100996.50
2022-09-15T17:18:10.005Z,100993.56
2022-09-15T17:20:39.290Z,100999.75
2022-09-15T17:23:23.243Z,101012.56
2022-09-15T17:25:52.731Z,100998.44
2022-09-15T17:28:22.263Z,100988.53
2022-09-15T17:31:00.225Z,100982.25
2022-09-15T17:33:28.326Z,100983.97
2022-09-15T17:35:55.117Z,100999.34
2022-09-15T17:38:21.914Z,100999.75
2022-09-15T17:40:49.782Z,100993.72
2022-09-15T17:43:21.325Z,101007.00
2022-09-15T17:45:49.279Z,101009.19
2022-09-15T17:48:16.170Z,101005.81
2022-09-15T17:50:43.454Z,101002.50
2022-09-15T17:53:13.209Z,101001.28
2022-09-15T17:55:39.968Z,100995.75
2022-09-15T17:58:06.674Z,101003.91
2022-09-15T18:00:35.794Z,100999.88
2022-09-15T18:03:05.845Z,100993.28
2022-09-15T18:05:35.002Z,100997.50
2022-09-15T18:08:04.969Z,100995.34
2022-09-15T18:10:34.316Z,101000.13
2022-09-15T18:13:01.818Z,100993.41
2022-09-15T18:15:31.003Z,100988.72
2022-09-15T18:18:01.983Z,100992.50
2022-09-15T18:20:30.339Z,100989.78
2022-09-15T18:22:56.886Z,100994.69
2022-09-15T18:25:25.433Z,100991.66
2022-09-15T18:27:52.100Z,100993.59
2022-09-15T18:30:19.871Z,100996.63
2022-09-15T18:32:46.702Z,100996.53
2022-09-15T18:35:18.339Z,100996.38
2022-09-15T18:37:46.958Z,101004.41
2022-09-15T18:40:15.566Z,101003.78
2022-09-15T18:42:43.086Z,101017.66
2022-09-15T18:45:12.574Z,101008.78
2022-09-15T18:47:40.870Z,101013.31
2022-09-15T18:50:07.700Z,101009.59
2022-09-15T18:52:39.072Z,101008.81
2022-09-15T18:55:07.317Z,101006.63
2022-09-15T18:57:35.466Z,101001.00
2022-09-15T19:00:07.513Z,101003.56
2022-09-15T19:02:34.148Z,101004.66
2022-09-15T19:05:00.904Z,101001.97
2022-09-15T19:07:28.626Z,101015.50
2022-09-15T19:09:56.722Z,101011.81
2022-09-15T19:12:23.348Z,101020.78
2022-09-15T19:14:49.843Z,101025.25
2022-09-15T19:17:16.630Z,101026.34
2022-09-15T19:19:43.417Z,101023.50
2022-09-15T19:22:09.956Z,101028.06
2022-09-15T19:24:36.811Z,101024.25
2022-09-15T19:27:04.974Z,101026.59
2022-09-15T19:29:34.836Z,101028.88
2022-09-15T19:32:06.592Z,101026.50
2022-09-15T19:34:33.117Z,101041.47
2022-09-15T19:36:59.470Z,101023.16
2022-09-15T19:39:26.027Z,101020.91
2022-09-15T19:41:52.536Z,101029.91
2022-09-15T19:44:18.860Z,101030.88
2022-09-15T19:46:45.511Z,101036.25
2022-09-15T19:49:12.576Z,101028.97
2022-09-15T19:51:39.145Z,101042.38
2022-09-15T19:54:06.224Z,101039.00
2022-09-15T19:56:32.871Z,101028.47
2022-09-15T19:58:59.836Z,101028.66
2022-09-15T20:01:28.624Z,101033.63
2022-09-15T20:03:56.297Z,101018.91
2022-09-15T20:06:27.589Z,101024.34
2022-09-15T20:08:58.170Z,101027.84
2022-09-15T20:11:26.472Z,101019.41
2022-09-15T20:13:54.214Z,101021.00
2022-09-15T20:16:22.390Z,101024.81
2022-09-15T20:18:50.365Z,101024.81
2022-09-15T20:21:32.600Z,101038.03
2022-09-15T20:24:05.979Z,101032.19
2022-09-15T20:26:32.919Z,101035.69
2022-09-15T20:29:01.612Z,101038.50
2022-09-15T20:31:29.349Z,101030.38
2022-09-15T20:33:56.145Z,101033.94
2022-09-15T20:36:25.384Z,101036.53
2022-09-15T20:38:53.396Z,101028.50
2022-09-15T20:41:22.949Z,101030.66
2022-09-15T20:43:50.517Z,101029.56
2022-09-15T20:46:19.249Z,101028.25
2022-09-15T20:48:46.544Z,101025.09
2022-09-15T20:51:15.672Z,101026.91
2022-09-15T20:53:44.457Z,101024.50
2022-09-15T20:56:11.497Z,101027.75
2022-09-15T20:58:38.406Z,101028.63
2022-09-15T21:01:08.563Z,101024.38
2022-09-15T21:03:37.271Z,101027.09
2022-09-15T21:06:06.758Z,101033.94
2022-09-15T21:08:34.379Z,101026.25
2022-09-15T21:11:01.061Z,101029.03
2022-09-15T21:13:29.769Z,101028.81
2022-09-15T21:15:58.404Z,101032.69
2022-09-15T21:18:35.093Z,101034.53
2022-09-15T21:21:14.411Z,101039.47
2022-09-15T21:23:48.736Z,101039.34
2022-09-15T21:26:24.561Z,101048.47
2022-09-15T21:28:51.636Z,101043.44
2022-09-15T21:31:23.224Z,101033.59
2022-09-15T21:33:50.142Z,101028.38
2022-09-15T21:36:22.406Z,101032.19
2022-09-15T21:38:51.045Z,101034.13
2022-09-15T21:41:21.440Z,101028.06
2022-09-15T21:43:49.472Z,101023.47
2022-09-15T21:46:18.263Z,101033.22
2022-09-15T21:48:47.177Z,101032.47
2022-09-15T21:51:24.651Z,101033.94
2022-09-15T21:53:53.088Z,101031.34
2022-09-15T21:56:19.555Z,101030.47
2022-09-15T21:58:46.030Z,101033.91
2022-09-15T22:01:14.888Z,101036.97
2022-09-15T22:03:44.615Z,101023.31
2022-09-15T22:06:11.676Z,101021.56
2022-09-15T22:08:39.629Z,101021.34
2022-09-15T22:11:07.289Z,101022.44
2022-09-15T22:13:36.297Z,101035.75
2022-09-15T22:16:08.097Z,101020.59
2022-09-15T22:18:38.487Z,101024.91
2022-09-15T22:21:12.912Z,101036.91
2022-09-15T22:23:40.142Z,101024.66
2022-09-15T22:26:20.956Z,101018.91
2022-09-15T22:28:48.299Z,101016.72
2022-09-15T22:31:16.735Z,101024.28
2022-09-15T22:33:43.448Z,101016.59
2022-09-15T22:36:11.687Z,101024.03
2022-09-15T22:38:38.602Z,101021.84
2022-09-15T22:41:08.910Z,101016.69
2022-09-15T22:43:36.692Z,101016.38
2022-09-15T22:46:03.413Z,101010.03
2022-09-15T22:48:30.075Z,101012.03
2022-09-15T22:50:56.801Z,101008.44
2022-09-15T22:53:23.489Z,101009.75
2022-09-15T22:55:50.437Z,101011.38
2022-09-15T22:58:16.910Z,101012.22
2022-09-15T23:00:43.492Z,101019.41
2022-09-15T23:03:11.277Z,101017.25
2022-09-15T23:05:38.188Z,101017.44
2022-09-15T23:08:04.711Z,101021.69
2022-09-15T23:10:31.371Z,101019.28
2022-09-15T23:12:58.914Z,101018.75
2022-09-15T23:15:25.287Z,101018.75
2022-09-15T23:17:51.692Z,101024.19
2022-09-15T23:20:18.126Z,101020.81
2022-09-15T23:22:44.446Z,101022.44
2022-09-15T23:25:10.814Z,101019.84
2022-09-15T23:27:37.167Z,101021.56
2022-09-15T23:30:03.921Z,101024.03
2022-09-15T23:32:30.298Z,101023.84
2022-09-15T23:34:56.777Z,101019.19
2022-09-15T23:37:23.139Z,101032.13
2022-09-15T23:39:49.547Z,101037.53
2022-09-15T23:42:18.915Z,101033.16
2022-09-15T23:44:45.773Z,101024.78
2022-09-15T23:47:12.148Z,101028.84
2022-09-15T23:49:38.540Z,101025.97
2022-09-15T23:52:04.917Z,101019.88
2022-09-15T23:54:31.258Z,101020.97
2022-09-15T23:56:57.658Z,101030.53
2022-09-15T23:59:24.061Z,101035.50
